createdAt,value
2022-11-24T00:02:28.461Z,8.4
2022-11-24T00:04:58.959Z,8.4
2022-11-24T00:07:29.974Z,8.4
2022-11-24T00:10:00.574Z,8.4
2022-11-24T00:12:31.539Z,8.3
2022-11-24T00:15:03.459Z,8.3
2022-11-24T00:17:34.308Z,8.4
2022-11-24T00:20:06.027Z,8.4
2022-11-24T00:22:45.210Z,8.4
2022-11-24T00:25:16.199Z,8.4
2022-11-24T00:27:46.880Z,8.4
2022-11-24T00:30:18.145Z,8.3
2022-11-24T00:32:49.836Z,8.3
2022-11-24T00:35:20.454Z,8.4
2022-11-24T00:37:52.862Z,8.4
2022-11-24T00:40:23.405Z,8.4
2022-11-24T00:42:53.714Z,8.3
2022-11-24T00:45:23.776Z,8.4
2022-11-24T00:47:54.498Z,8.4
2022-11-24T00:50:28.524Z,8.4
2022-11-24T00:53:00.727Z,8.4
2022-11-24T00:55:31.580Z,8.4
2022-11-24T00:58:02.499Z,8.4
2022-11-24T01:00:34.780Z,8.4
2022-11-24T01:03:05.954Z,8.4
2022-11-24T01:05:36.758Z,8.4
2022-11-24T01:08:07.821Z,8.5
2022-11-24T01:10:38.790Z,8.5
2022-11-24T01:13:10.277Z,8.5
2022-11-24T01:15:41.769Z,8.4
2022-11-24T01:18:12.609Z,8.5
2022-11-24T01:20:43.286Z,8.5
2022-11-24T01:23:17.083Z,8.5
2022-11-24T01:25:47.789Z,8.5
2022-11-24T01:28:18.566Z,8.5
2022-11-24T01:30:49.399Z,8.5
2022-11-24T01:33:20.495Z,8.5
2022-11-24T01:35:50.865Z,8.4
2022-11-24T01:38:21.547Z,8.4
2022-11-24T01:40:51.969Z,8.4
2022-11-24T01:43:22.920Z,8.4
2022-11-24T01:45:58.166Z,8.5
2022-11-24T01:48:31.855Z,8.4
2022-11-24T01:51:03.983Z,8.4
2022-11-24T01:53:34.909Z,8.4
2022-11-24T01:56:05.188Z,8.5
2022-11-24T01:58:35.599Z,8.5
2022-11-24T02:01:09.388Z,8.6
2022-11-24T02:03:40.423Z,8.6
2022-11-24T02:06:11.396Z,8.6
2022-11-24T02:08:43.048Z,8.5
2022-11-24T02:11:13.924Z,8.6
2022-11-24T02:13:44.561Z,8.5
2022-11-24T02:16:16.491Z,8.5
2022-11-24T02:18:47.265Z,8.5
2022-11-24T02:21:18.151Z,8.6
2022-11-24T02:23:47.927Z,8.5
2022-11-24T02:26:18.675Z,8.6
2022-11-24T02:28:49.885Z,8.6
2022-11-24T02:31:21.055Z,8.6
2022-11-24T02:33:53.468Z,8.6
2022-11-24T02:36:24.353Z,8.6
2022-11-24T02:38:59.039Z,8.5
2022-11-24T02:41:30.585Z,8.6
2022-11-24T02:44:02.081Z,8.5
2022-11-24T02:46:33.306Z,8.6
2022-11-24T02:49:04.143Z,8.6
2022-11-24T02:51:36.695Z,8.5
2022-11-24T02:54:07.599Z,8.5
2022-11-24T02:56:40.397Z,8.6
2022-11-24T02:59:13.181Z,8.6
2022-11-24T03:01:44.610Z,8.6
2022-11-24T03:04:15.377Z,8.6
2022-11-24T03:06:46.346Z,8.6
2022-11-24T03:09:17.879Z,8.7
2022-11-24T03:11:50.452Z,8.6
2022-11-24T03:14:21.855Z,8.6
2022-11-24T03:16:53.334Z,8.6
2022-11-24T03:19:25.381Z,8.6
2022-11-24T03:21:56.540Z,8.6
2022-11-24T03:24:27.403Z,8.6
2022-11-24T03:26:58.262Z,8.7
2022-11-24T03:29:29.245Z,8.6
2022-11-24T03:32:00.371Z,8.7
2022-11-24T03:34:31.941Z,8.6
2022-11-24T03:37:03.124Z,8.7
2022-11-24T03:39:34.106Z,8.7
2022-11-24T03:42:08.676Z,8.6
2022-11-24T03:44:39.446Z,8.6
2022-11-24T03:47:10.908Z,8.7
2022-11-24T03:49:42.351Z,8.6
2022-11-24T03:52:13.567Z,8.6
2022-11-24T03:54:44.624Z,8.5
2022-11-24T03:57:15.806Z,8.6
2022-11-24T03:59:49.807Z,8.7
2022-11-24T04:02:19.511Z,8.6
2022-11-24T04:04:50.651Z,8.7
2022-11-24T04:07:21.295Z,8.7
2022-11-24T04:09:52.105Z,8.6
2022-11-24T04:12:22.506Z,8.7
2022-11-24T04:14:53.048Z,8.7
2022-11-24T04:17:28.500Z,8.7
2022-11-24T04:19:59.589Z,8.7
2022-11-24T04:22:30.560Z,8.7
2022-11-24T04:25:01.722Z,8.7
2022-11-24T04:27:36.059Z,8.8
2022-11-24T04:30:06.871Z,8.7
2022-11-24T04:32:43.798Z,8.6
2022-11-24T04:35:16.626Z,8.7
2022-11-24T04:37:47.335Z,8.6
2022-11-24T04:40:18.378Z,8.7
2022-11-24T04:42:49.113Z,8.6
2022-11-24T04:45:25.642Z,8.7
2022-11-24T04:47:58.574Z,8.7
2022-11-24T04:50:29.368Z,8.8
2022-11-24T04:53:00.805Z,8.8
2022-11-24T04:55:32.153Z,8.8
2022-11-24T04:58:03.417Z,8.8
2022-11-24T05:00:33.829Z,8.8
2022-11-24T05:03:04.527Z,8.8
2022-11-24T05:05:35.228Z,8.8
2022-11-24T05:08:06.355Z,8.8
2022-11-24T05:10:37.397Z,8.7
2022-11-24T05:13:08.540Z,8.7
2022-11-24T05:15:42.601Z,8.8
2022-11-24T05:18:13.186Z,8.9
2022-11-24T05:20:44.010Z,8.9
2022-11-24T05:23:15.290Z,8.9
2022-11-24T05:25:47.719Z,8.9
2022-11-24T05:28:16.848Z,8.9
2022-11-24T05:30:48.195Z,8.8
2022-11-24T05:33:19.360Z,8.8
2022-11-24T05:35:50.860Z,8.8
2022-11-24T05:38:21.892Z,8.9
2022-11-24T05:40:52.514Z,8.9
2022-11-24T05:43:23.560Z,8.8
2022-11-24T05:45:55.706Z,8.9
2022-11-24T05:48:28.810Z,8.9
2022-11-24T05:51:02.294Z,8.9
2022-11-24T05:53:31.777Z,8.9
2022-11-24T05:56:02.994Z,8.9
2022-11-24T05:58:34.084Z,8.9
2022-11-24T06:01:04.588Z,9
2022-11-24T06:03:35.295Z,8.9
2022-11-24T06:06:05.916Z,8.9
2022-11-24T06:08:36.971Z,8.9
2022-11-24T06:11:07.297Z,8.9
2022-11-24T06:13:38.141Z,8.9
2022-11-24T06:16:08.857Z,9
2022-11-24T06:18:39.475Z,9
2022-11-24T06:21:11.738Z,9
2022-11-24T06:23:41.500Z,9
2022-11-24T06:26:10.339Z,8.9
2022-11-24T06:28:41.470Z,8.9
2022-11-24T06:31:11.487Z,9
2022-11-24T06:33:41.869Z,9
2022-11-24T06:36:12.371Z,9.1
2022-11-24T06:38:43.525Z,9.1
2022-11-24T06:41:14.711Z,9.1
2022-11-24T06:43:45.380Z,9.1
2022-11-24T06:46:15.955Z,9.1
2022-11-24T06:48:46.682Z,9.1
2022-11-24T06:51:17.381Z,9.2
2022-11-24T06:53:48.000Z,9.1
2022-11-24T06:56:19.112Z,9.2
2022-11-24T06:58:52.682Z,9.1
2022-11-24T07:01:23.877Z,9.1
2022-11-24T07:03:56.512Z,9.2
2022-11-24T07:06:28.648Z,9.2
2022-11-24T07:09:01.172Z,9.2
2022-11-24T07:11:32.157Z,9.2
2022-11-24T07:14:02.775Z,9.2
2022-11-24T07:16:38.674Z,9.2
2022-11-24T07:19:08.885Z,9.2
2022-11-24T07:21:41.785Z,9.3
2022-11-24T07:24:15.863Z,9.2
2022-11-24T07:26:47.085Z,9.3
2022-11-24T07:29:17.353Z,9.2
2022-11-24T07:31:48.590Z,9.2
2022-11-24T07:34:19.294Z,9.2
2022-11-24T07:36:52.989Z,9.3
2022-11-24T07:39:24.250Z,9.3
2022-11-24T07:41:55.302Z,9.4
2022-11-24T07:44:26.082Z,9.4
2022-11-24T07:46:56.363Z,9.3
2022-11-24T07:49:26.790Z,9.3
2022-11-24T07:51:57.699Z,9.4
2022-11-24T07:54:28.390Z,9.3
2022-11-24T07:57:01.518Z,9.3
2022-11-24T07:59:32.670Z,9.2
2022-11-24T08:02:02.869Z,9.3
2022-11-24T08:04:34.710Z,9.3
2022-11-24T08:07:05.749Z,9.3
2022-11-24T08:09:36.557Z,9.2
2022-11-24T08:12:07.172Z,9.2
2022-11-24T08:14:38.734Z,9.2
2022-11-24T08:17:09.700Z,9.2
2022-11-24T08:19:42.193Z,9.2
2022-11-24T08:22:13.309Z,9.2
2022-11-24T08:24:45.163Z,9.2
2022-11-24T08:27:16.169Z,9.2
2022-11-24T08:29:46.889Z,9.3
2022-11-24T08:32:22.143Z,9.2
2022-11-24T08:34:47.668Z,9.3
2022-11-24T08:37:18.540Z,9.3
2022-11-24T08:39:49.360Z,9.4
2022-11-24T08:42:23.142Z,9.3
2022-11-24T08:44:58.762Z,9.4
2022-11-24T08:47:24.344Z,9.4
2022-11-24T08:49:55.286Z,9.3
2022-11-24T08:52:26.366Z,9.4
2022-11-24T08:54:56.981Z,9.4
2022-11-24T08:57:28.446Z,9.3
2022-11-24T08:59:59.492Z,9.4
2022-11-24T09:02:30.124Z,9.4
2022-11-24T09:05:01.092Z,9.4
2022-11-24T09:07:36.679Z,9.4
2022-11-24T09:10:08.248Z,9.4
2022-11-24T09:12:39.087Z,9.4
2022-11-24T09:15:10.745Z,9.5
2022-11-24T09:17:41.298Z,9.5
2022-11-24T09:20:11.595Z,9.5
2022-11-24T09:22:42.281Z,9.5
2022-11-24T09:25:13.835Z,9.5
2022-11-24T09:27:47.982Z,9.6
2022-11-24T09:30:18.666Z,9.5
2022-11-24T09:32:50.791Z,9.6
2022-11-24T09:35:21.342Z,9.6
2022-11-24T09:37:51.793Z,9.6
2022-11-24T09:40:22.048Z,9.7
2022-11-24T09:42:53.749Z,9.7
2022-11-24T09:45:41.961Z,9.7
2022-11-24T09:47:53.659Z,9.7
2022-11-24T09:50:23.890Z,9.7
2022-11-24T09:52:54.816Z,9.7
2022-11-24T09:55:25.892Z,9.7
2022-11-24T09:57:59.340Z,9.7
2022-11-24T10:00:31.306Z,9.7
2022-11-24T10:03:05.766Z,9.7
2022-11-24T10:05:36.223Z,9.7
2022-11-24T10:08:06.959Z,9.8
2022-11-24T10:10:37.643Z,9.8
2022-11-24T10:13:07.861Z,9.8
2022-11-24T10:15:41.015Z,9.8
2022-11-24T10:18:16.653Z,9.8
2022-11-24T10:20:46.762Z,9.8
2022-11-24T10:23:26.568Z,9.8
2022-11-24T10:25:57.738Z,9.8
2022-11-24T10:28:28.676Z,9.8
2022-11-24T10:30:59.701Z,9.8
2022-11-24T10:33:31.201Z,9.8
2022-11-24T10:36:03.723Z,9.8
2022-11-24T10:38:34.308Z,9.8
2022-11-24T10:41:04.808Z,9.9
2022-11-24T10:43:35.442Z,9.9
2022-11-24T10:46:10.811Z,9.8
2022-11-24T10:48:43.646Z,9.9
2022-11-24T10:51:14.632Z,9.9
2022-11-24T10:53:50.215Z,9.9
2022-11-24T10:56:21.239Z,9.9
2022-11-24T10:58:51.605Z,9.9
2022-11-24T11:01:22.919Z,9.9
2022-11-24T11:03:53.210Z,9.9
2022-11-24T11:06:23.506Z,10
2022-11-24T11:08:53.708Z,10
2022-11-24T11:11:24.287Z,10
2022-11-24T11:13:58.435Z,10
2022-11-24T11:16:25.362Z,10
2022-11-24T11:19:25.955Z,10
2022-11-24T11:21:37.281Z,10.1
2022-11-24T11:24:07.566Z,10.1
2022-11-24T11:26:38.705Z,10.2
2022-11-24T11:34:02.633Z,10.2
2022-11-24T11:34:22.022Z,10.2
2022-11-24T11:36:46.840Z,10.3
2022-11-24T11:39:21.404Z,10.3
2022-11-24T11:41:52.225Z,10.3
2022-11-24T11:44:22.610Z,10.4
2022-11-24T11:46:53.384Z,10.3
2022-11-24T11:49:23.892Z,10.4
2022-11-24T11:51:54.376Z,10.5
2022-11-24T11:54:24.582Z,10.4
2022-11-24T11:56:58.885Z,10.5
2022-11-24T11:59:29.820Z,10.5
2022-11-24T12:02:02.457Z,10.5
2022-11-24T12:04:32.743Z,10.6
2022-11-24T12:07:04.444Z,10.6
2022-11-24T12:09:34.872Z,10.6
2022-11-24T12:12:04.846Z,10.7
2022-11-24T12:14:37.569Z,10.7
2022-11-24T12:17:06.249Z,10.7
2022-11-24T12:19:37.371Z,10.7
2022-11-24T12:22:07.701Z,10.7
2022-11-24T12:24:38.989Z,10.7
2022-11-24T12:27:09.469Z,10.7
2022-11-24T12:29:42.190Z,10.7
2022-11-24T12:32:13.023Z,10.7
2022-11-24T12:34:44.536Z,10.7
2022-11-24T12:37:15.281Z,10.8
2022-11-24T12:39:45.766Z,10.8
2022-11-24T12:42:18.833Z,10.8
2022-11-24T12:44:49.386Z,10.9
2022-11-24T12:47:19.799Z,10.9
2022-11-24T12:49:50.001Z,10.9
2022-11-24T12:52:20.596Z,10.9
2022-11-24T12:54:51.252Z,10.9
2022-11-24T12:57:29.956Z,10.9
2022-11-24T13:00:00.551Z,11
2022-11-24T13:02:31.463Z,10.9
2022-11-24T13:05:02.023Z,10.9
2022-11-24T13:07:32.601Z,10.9
2022-11-24T13:10:03.715Z,10.9
2022-11-24T13:12:34.492Z,10.8
2022-11-24T13:15:06.116Z,10.7
2022-11-24T13:17:58.340Z,10.8
2022-11-24T13:20:08.633Z,10.7
2022-11-24T13:22:39.369Z,10.7
2022-11-24T13:25:09.641Z,10.6
2022-11-24T13:27:40.830Z,10.7
2022-11-24T13:30:11.447Z,10.8
2022-11-24T13:32:42.055Z,10.6
2022-11-24T13:35:13.803Z,10.6
2022-11-24T13:37:45.885Z,10.7
2022-11-24T13:40:17.108Z,10.6
2022-11-24T13:42:47.615Z,10.6
2022-11-24T13:45:18.130Z,10.6
2022-11-24T13:47:49.037Z,10.6
2022-11-24T13:50:21.628Z,10.6
2022-11-24T13:52:51.768Z,10.6
2022-11-24T13:55:22.788Z,10.7
2022-11-24T13:57:54.786Z,10.6
2022-11-24T14:00:25.919Z,10.6
2022-11-24T14:02:56.827Z,10.6
2022-11-24T14:05:28.574Z,10.7
2022-11-24T14:07:59.732Z,10.5
2022-11-24T14:10:31.000Z,10.6
2022-11-24T14:13:00.739Z,10.6
2022-11-24T14:15:35.981Z,10.6
2022-11-24T14:18:09.108Z,10.6
2022-11-24T14:20:39.783Z,10.6
2022-11-24T14:23:10.850Z,10.6
2022-11-24T14:25:42.544Z,10.5
2022-11-24T14:28:17.111Z,10.6
2022-11-24T14:30:47.795Z,10.5
2022-11-24T14:33:27.744Z,10.5
2022-11-24T14:35:58.903Z,10.6
2022-11-24T14:38:29.893Z,10.5
2022-11-24T14:41:01.710Z,10.6
2022-11-24T14:43:33.627Z,10.5
2022-11-24T14:46:04.944Z,10.4
2022-11-24T14:48:35.872Z,10.5
2022-11-24T14:51:09.236Z,10.4
2022-11-24T14:53:39.691Z,10.5
2022-11-24T14:56:10.936Z,10.5
2022-11-24T14:58:45.089Z,10.5
2022-11-24T15:01:16.739Z,10.6
2022-11-24T15:03:48.331Z,10.5
2022-11-24T15:06:19.431Z,10.6
2022-11-24T15:08:51.429Z,10.5
2022-11-24T15:11:23.218Z,10.4
2022-11-24T15:13:55.874Z,10.5
2022-11-24T15:16:27.169Z,10.5
2022-11-24T15:18:58.623Z,10.5
2022-11-24T15:21:30.707Z,10.5
2022-11-24T15:24:01.869Z,10.5
2022-11-24T15:26:40.163Z,10.5
2022-11-24T15:29:05.743Z,10.4
2022-11-24T15:31:47.805Z,10.4
2022-11-24T15:34:16.851Z,10.4
2022-11-24T15:36:47.817Z,10.4
2022-11-24T15:39:20.525Z,10.4
2022-11-24T15:41:52.151Z,10.4
2022-11-24T15:44:23.757Z,10.3
2022-11-24T15:46:55.798Z,10.4
2022-11-24T15:49:26.699Z,10.4
2022-11-24T15:52:01.129Z,10.5
2022-11-24T15:54:32.975Z,10.4
2022-11-24T15:57:07.161Z,10.4
2022-11-24T15:59:38.324Z,10.4
2022-11-24T16:02:12.454Z,10.5
2022-11-24T16:04:44.815Z,10.4
2022-11-24T16:07:16.000Z,10.4
2022-11-24T16:09:48.957Z,10.4
2022-11-24T16:12:22.483Z,10.4
2022-11-24T16:14:54.960Z,10.4
2022-11-24T16:17:27.891Z,10.3
2022-11-24T16:20:00.649Z,10.3
2022-11-24T16:22:30.670Z,10.3
2022-11-24T16:25:02.601Z,10.2
2022-11-24T16:27:34.935Z,10.2
2022-11-24T16:30:06.433Z,10.2
2022-11-24T16:32:40.132Z,10.3
2022-11-24T16:35:11.954Z,10.3
2022-11-24T16:37:44.820Z,10.3
2022-11-24T16:40:19.054Z,10.3
2022-11-24T16:42:50.651Z,10.4
2022-11-24T16:45:21.726Z,10.4
2022-11-24T16:47:52.532Z,10.4
2022-11-24T16:50:25.982Z,10.2
2022-11-24T16:52:58.705Z,10.3
2022-11-24T16:55:29.926Z,10.3
2022-11-24T16:58:01.030Z,10.2
2022-11-24T17:00:32.148Z,10.2
2022-11-24T17:03:03.368Z,10.1
2022-11-24T17:05:37.146Z,10.1
2022-11-24T17:08:10.976Z,10.1
2022-11-24T17:10:42.354Z,10.1
2022-11-24T17:13:15.955Z,10.1
2022-11-24T17:15:51.080Z,10
2022-11-24T17:18:25.377Z,10.1
2022-11-24T17:20:57.252Z,10.2
2022-11-24T17:23:28.681Z,10.2
2022-11-24T17:25:59.570Z,10.1
2022-11-24T17:28:33.106Z,10.3
2022-11-24T17:31:04.603Z,10.2
2022-11-24T17:33:38.412Z,10.3
2022-11-24T17:36:09.567Z,10.2
2022-11-24T17:38:40.681Z,10.1
2022-11-24T17:41:11.899Z,10.1
2022-11-24T17:43:45.800Z,10.1
2022-11-24T17:46:17.343Z,10.1
2022-11-24T17:48:49.401Z,10.1
2022-11-24T17:51:20.282Z,10.1
2022-11-24T17:53:51.280Z,10.2
2022-11-24T17:56:22.791Z,10.1
2022-11-24T17:58:54.199Z,10.1
2022-11-24T18:01:27.211Z,10.1
2022-11-24T18:03:59.395Z,10.1
2022-11-24T18:06:30.720Z,10
2022-11-24T18:09:06.261Z,9.9
2022-11-24T18:11:46.637Z,9.9
2022-11-24T18:14:17.600Z,9.9
2022-11-24T18:16:49.803Z,9.9
2022-11-24T18:19:21.101Z,10
2022-11-24T18:21:52.579Z,9.9
2022-11-24T18:24:24.290Z,9.9
2022-11-24T18:26:59.610Z,9.9
2022-11-24T18:29:30.662Z,10
2022-11-24T18:32:04.981Z,10
2022-11-24T18:34:37.576Z,10.1
2022-11-24T18:37:08.543Z,10
2022-11-24T18:39:44.579Z,10
2022-11-24T18:42:21.164Z,10
2022-11-24T18:44:54.253Z,10
2022-11-24T18:47:24.860Z,10
2022-11-24T18:49:56.320Z,9.9
2022-11-24T18:52:29.562Z,9.9
2022-11-24T18:55:02.081Z,10
2022-11-24T18:57:33.256Z,10
2022-11-24T19:00:04.497Z,9.9
2022-11-24T19:02:38.135Z,10
2022-11-24T19:05:09.581Z,9.9
2022-11-24T19:07:41.369Z,9.8
2022-11-24T19:10:12.542Z,9.8
2022-11-24T19:12:44.509Z,9.9
2022-11-24T19:15:15.681Z,9.9
2022-11-24T19:17:47.470Z,9.8
2022-11-24T19:20:16.722Z,9.9
2022-11-24T19:22:47.540Z,9.9
2022-11-24T19:25:18.067Z,9.9
2022-11-24T19:27:50.216Z,9.9
2022-11-24T19:30:22.275Z,9.9
2022-11-24T19:32:53.304Z,10
2022-11-24T19:35:24.681Z,9.9
2022-11-24T19:38:03.727Z,9.9
2022-11-24T19:40:34.380Z,9.8
2022-11-24T19:43:05.347Z,9.8
2022-11-24T19:45:36.881Z,9.7
2022-11-24T19:48:08.102Z,9.6
2022-11-24T19:50:43.622Z,9.7
2022-11-24T19:53:15.430Z,9.7
2022-11-24T19:55:55.554Z,9.7
2022-11-24T19:58:26.576Z,9.7
2022-11-24T20:01:01.210Z,9.6
2022-11-24T20:03:32.559Z,9.8
2022-11-24T20:06:04.082Z,9.5
2022-11-24T20:08:35.390Z,9.5
2022-11-24T20:11:08.392Z,9.5
2022-11-24T20:13:39.300Z,9.6
2022-11-24T20:16:10.602Z,9.6
2022-11-24T20:18:42.478Z,9.6
2022-11-24T20:21:13.572Z,9.6
2022-11-24T20:23:44.519Z,9.5
2022-11-24T20:26:16.721Z,9.4
2022-11-24T20:28:51.462Z,9.5
2022-11-24T20:31:22.440Z,9.6
2022-11-24T20:33:54.180Z,9.7
2022-11-24T20:36:26.516Z,9.7
2022-11-24T20:38:59.210Z,9.7
2022-11-24T20:41:30.766Z,9.7
2022-11-24T20:44:02.095Z,9.8
2022-11-24T20:46:33.258Z,9.8
2022-11-24T20:49:04.271Z,9.8
2022-11-24T20:51:35.473Z,9.7
2022-11-24T20:54:07.651Z,9.8
2022-11-24T20:56:39.393Z,9.7
2022-11-24T20:59:10.705Z,9.7
2022-11-24T21:01:42.595Z,9.7
2022-11-24T21:04:14.838Z,9.7
2022-11-24T21:06:45.883Z,9.7
2022-11-24T21:09:16.885Z,9.7
2022-11-24T21:11:48.130Z,9.6
2022-11-24T21:14:19.489Z,9.7
2022-11-24T21:16:50.729Z,9.8
2022-11-24T21:19:22.040Z,9.8
2022-11-24T21:21:54.401Z,9.8
2022-11-24T21:24:25.732Z,9.8
2022-11-24T21:26:56.795Z,9.8
2022-11-24T21:29:28.531Z,9.8
2022-11-24T21:32:00.410Z,9.9
2022-11-24T21:34:33.095Z,9.9
2022-11-24T21:37:04.339Z,9.8
2022-11-24T21:39:35.943Z,9.8
2022-11-24T21:42:07.299Z,9.8
2022-11-24T21:44:38.645Z,9.9
2022-11-24T21:47:09.762Z,9.9
2022-11-24T21:49:41.326Z,9.9
2022-11-24T21:52:13.551Z,9.9
2022-11-24T21:54:45.031Z,9.9
2022-11-24T21:57:16.360Z,9.9
2022-11-24T21:59:47.493Z,9.9
2022-11-24T22:02:18.619Z,10
2022-11-24T22:04:51.329Z,9.9
2022-11-24T22:07:22.801Z,10
2022-11-24T22:09:54.122Z,10
2022-11-24T22:12:25.090Z,10
2022-11-24T22:14:56.370Z,10
2022-11-24T22:17:27.580Z,9.9
2022-11-24T22:20:03.811Z,9.9
2022-11-24T22:22:35.141Z,9.9
2022-11-24T22:25:06.313Z,10
2022-11-24T22:27:37.341Z,10
2022-11-24T22:30:08.386Z,10
2022-11-24T22:32:39.949Z,10
2022-11-24T22:35:11.668Z,10
2022-11-24T22:37:43.591Z,10.1
2022-11-24T22:40:14.922Z,10.1
2022-11-24T22:42:46.509Z,10.1
2022-11-24T22:45:17.744Z,10
2022-11-24T22:47:48.814Z,10
2022-11-24T22:50:20.022Z,10.1
2022-11-24T22:52:51.425Z,10
2022-11-24T22:55:22.286Z,10
2022-11-24T22:57:56.898Z,10
2022-11-24T23:00:24.411Z,10
2022-11-24T23:02:55.550Z,10.1
2022-11-24T23:05:26.830Z,10.1
2022-11-24T23:07:58.324Z,10
2022-11-24T23:10:29.819Z,10
2022-11-24T23:13:00.344Z,10
2022-11-24T23:15:31.710Z,9.9
2022-11-24T23:18:02.493Z,10
2022-11-24T23:20:33.113Z,10.1
2022-11-24T23:23:03.470Z,10
2022-11-24T23:25:34.366Z,10
2022-11-24T23:28:05.600Z,10
2022-11-24T23:30:36.686Z,10
2022-11-24T23:33:07.284Z,10
2022-11-24T23:35:37.806Z,9.9
2022-11-24T23:38:08.363Z,10
2022-11-24T23:40:38.996Z,9.9
2022-11-24T23:43:10.171Z,9.8
2022-11-24T23:45:41.247Z,9.8
2022-11-24T23:48:13.353Z,9.8
2022-11-24T23:50:44.077Z,9.5
2022-11-24T23:53:15.448Z,9.5
2022-11-24T23:55:44.282Z,9.2
2022-11-24T23:58:15.471Z,9.2
